sensor_id;sensor_type;location;lat;lon;timestamp;temperature;humidity
51733;DHT22;39139;53.144;6.244;2022-12-29T00:02:00;10.10;99.90
51733;DHT22;39139;53.144;6.244;2022-12-29T00:04:25;10.00;99.90
51733;DHT22;39139;53.144;6.244;2022-12-29T00:06:52;10.00;99.90
51733;DHT22;39139;53.144;6.244;2022-12-29T00:09:17;10.00;99.90
51733;DHT22;39139;53.144;6.244;2022-12-29T00:11:43;10.10;99.90
51733;DHT22;39139;53.144;6.244;2022-12-29T00:14:11;10.10;99.90
51733;DHT22;39139;53.144;6.244;2022-12-29T00:16:55;10.00;99.90
51733;DHT22;39139;53.144;6.244;2022-12-29T00:19:21;10.00;99.90
51733;DHT22;39139;53.144;6.244;2022-12-29T00:22:05;10.30;99.90
51733;DHT22;39139;53.144;6.244;2022-12-29T00:24:50;10.70;99.90
51733;DHT22;39139;53.144;6.244;2022-12-29T00:27:19;10.00;99.90
51733;DHT22;39139;53.144;6.244;2022-12-29T00:30:29;10.00;99.90
51733;DHT22;39139;53.144;6.244;2022-12-29T00:33:14;10.30;99.90
51733;DHT22;39139;53.144;6.244;2022-12-29T00:36:08;10.20;99.90
51733;DHT22;39139;53.144;6.244;2022-12-29T00:38:40;10.20;99.90
51733;DHT22;39139;53.144;6.244;2022-12-29T00:41:26;10.30;99.90
51733;DHT22;39139;53.144;6.244;2022-12-29T00:44:12;10.90;99.90
51733;DHT22;39139;53.144;6.244;2022-12-29T00:46:41;10.70;99.90
51733;DHT22;39139;53.144;6.244;2022-12-29T00:49:10;10.40;99.90
51733;DHT22;39139;53.144;6.244;2022-12-29T00:51:56;10.20;99.90
51733;DHT22;39139;53.144;6.244;2022-12-29T00:54:23;10.30;99.90
51733;DHT22;39139;53.144;6.244;2022-12-29T00:56:50;10.30;99.90
51733;DHT22;39139;53.144;6.244;2022-12-29T00:59:16;10.20;99.90
51733;DHT22;39139;53.144;6.244;2022-12-29T01:01:42;10.20;99.90
51733;DHT22;39139;53.144;6.244;2022-12-29T01:04:09;10.20;99.90
51733;DHT22;39139;53.144;6.244;2022-12-29T01:06:36;10.40;99.90
51733;DHT22;39139;53.144;6.244;2022-12-29T01:09:03;10.80;99.90
51733;DHT22;39139;53.144;6.244;2022-12-29T01:11:48;10.30;99.90
51733;DHT22;39139;53.144;6.244;2022-12-29T01:14:13;10.30;99.90
51733;DHT22;39139;53.144;6.244;2022-12-29T01:16:39;10.40;99.90
51733;DHT22;39139;53.144;6.244;2022-12-29T01:19:06;10.20;99.90
51733;DHT22;39139;53.144;6.244;2022-12-29T01:21:32;10.20;99.90
51733;DHT22;39139;53.144;6.244;2022-12-29T01:23:57;10.40;99.90
51733;DHT22;39139;53.144;6.244;2022-12-29T01:26:23;10.50;99.90
51733;DHT22;39139;53.144;6.244;2022-12-29T01:28:49;10.50;99.90
51733;DHT22;39139;53.144;6.244;2022-12-29T01:31:15;10.50;99.90
51733;DHT22;39139;53.144;6.244;2022-12-29T01:33:41;10.30;99.90
51733;DHT22;39139;53.144;6.244;2022-12-29T01:36:13;11.00;99.90
51733;DHT22;39139;53.144;6.244;2022-12-29T01:38:40;10.20;99.90
51733;DHT22;39139;53.144;6.244;2022-12-29T01:41:06;10.30;99.90
51733;DHT22;39139;53.144;6.244;2022-12-29T01:43:59;10.20;99.90
51733;DHT22;39139;53.144;6.244;2022-12-29T01:49:23;10.30;99.90
51733;DHT22;39139;53.144;6.244;2022-12-29T01:52:02;10.30;99.90
51733;DHT22;39139;53.144;6.244;2022-12-29T01:57:04;10.00;99.90
51733;DHT22;39139;53.144;6.244;2022-12-29T01:59:39;10.20;99.90
51733;DHT22;39139;53.144;6.244;2022-12-29T02:02:07;10.10;99.90
51733;DHT22;39139;53.144;6.244;2022-12-29T02:04:33;10.10;99.90
51733;DHT22;39139;53.144;6.244;2022-12-29T02:07:10;10.00;99.90
51733;DHT22;39139;53.144;6.244;2022-12-29T02:09:36;9.90;99.90
51733;DHT22;39139;53.144;6.244;2022-12-29T02:12:02;10.50;99.90
51733;DHT22;39139;53.144;6.244;2022-12-29T02:14:29;10.00;99.90
51733;DHT22;39139;53.144;6.244;2022-12-29T02:17:08;9.90;99.90
51733;DHT22;39139;53.144;6.244;2022-12-29T02:25:22;10.10;99.90
51733;DHT22;39139;53.144;6.244;2022-12-29T02:28:03;10.10;99.90
51733;DHT22;39139;53.144;6.244;2022-12-29T02:30:54;9.80;99.90
51733;DHT22;39139;53.144;6.244;2022-12-29T02:33:38;9.90;99.90
51733;DHT22;39139;53.144;6.244;2022-12-29T02:36:21;10.20;99.90
51733;DHT22;39139;53.144;6.244;2022-12-29T02:39:01;10.20;99.90
51733;DHT22;39139;53.144;6.244;2022-12-29T02:41:32;10.00;99.90
51733;DHT22;39139;53.144;6.244;2022-12-29T02:44:14;10.80;99.90
51733;DHT22;39139;53.144;6.244;2022-12-29T02:46:52;10.60;99.90
51733;DHT22;39139;53.144;6.244;2022-12-29T02:49:36;10.00;99.90
51733;DHT22;39139;53.144;6.244;2022-12-29T02:52:26;10.10;99.90
51733;DHT22;39139;53.144;6.244;2022-12-29T02:54:57;10.30;99.90
51733;DHT22;39139;53.144;6.244;2022-12-29T02:59:53;10.10;99.90
51733;DHT22;39139;53.144;6.244;2022-12-29T03:05:20;10.30;99.90
51733;DHT22;39139;53.144;6.244;2022-12-29T03:10:41;10.20;99.90
51733;DHT22;39139;53.144;6.244;2022-12-29T03:13:24;10.40;99.90
51733;DHT22;39139;53.144;6.244;2022-12-29T03:19:08;10.30;99.90
51733;DHT22;39139;53.144;6.244;2022-12-29T03:21:42;10.20;99.90
51733;DHT22;39139;53.144;6.244;2022-12-29T03:24:31;10.10;99.90
51733;DHT22;39139;53.144;6.244;2022-12-29T03:27:00;10.20;99.90
51733;DHT22;39139;53.144;6.244;2022-12-29T03:29:29;10.10;99.90
51733;DHT22;39139;53.144;6.244;2022-12-29T03:31:56;10.50;99.90
51733;DHT22;39139;53.144;6.244;2022-12-29T03:34:23;9.90;99.90
51733;DHT22;39139;53.144;6.244;2022-12-29T03:36:55;10.60;99.90
51733;DHT22;39139;53.144;6.244;2022-12-29T03:39:24;9.90;99.90
51733;DHT22;39139;53.144;6.244;2022-12-29T03:41:56;9.90;99.90
51733;DHT22;39139;53.144;6.244;2022-12-29T03:44:33;9.80;99.90
51733;DHT22;39139;53.144;6.244;2022-12-29T03:46:59;10.10;99.90
51733;DHT22;39139;53.144;6.244;2022-12-29T03:49:24;9.80;99.90
51733;DHT22;39139;53.144;6.244;2022-12-29T03:51:50;9.90;99.90
51733;DHT22;39139;53.144;6.244;2022-12-29T03:54:15;9.80;99.90
51733;DHT22;39139;53.144;6.244;2022-12-29T03:56:41;9.80;99.90
51733;DHT22;39139;53.144;6.244;2022-12-29T03:59:06;9.80;99.90
51733;DHT22;39139;53.144;6.244;2022-12-29T04:01:32;9.80;99.90
51733;DHT22;39139;53.144;6.244;2022-12-29T04:03:57;9.80;99.90
51733;DHT22;39139;53.144;6.244;2022-12-29T04:06:23;9.70;99.90
51733;DHT22;39139;53.144;6.244;2022-12-29T04:08:49;9.80;99.90
51733;DHT22;39139;53.144;6.244;2022-12-29T04:11:14;9.80;99.90
51733;DHT22;39139;53.144;6.244;2022-12-29T04:13:40;9.80;99.90
51733;DHT22;39139;53.144;6.244;2022-12-29T04:16:06;9.80;99.90
51733;DHT22;39139;53.144;6.244;2022-12-29T04:18:32;9.80;99.90
51733;DHT22;39139;53.144;6.244;2022-12-29T04:20:58;9.90;99.90
51733;DHT22;39139;53.144;6.244;2022-12-29T04:23:27;9.90;99.90
51733;DHT22;39139;53.144;6.244;2022-12-29T04:25:53;9.80;99.90
51733;DHT22;39139;53.144;6.244;2022-12-29T04:28:19;9.80;99.90
51733;DHT22;39139;53.144;6.244;2022-12-29T04:30:45;9.80;99.90
51733;DHT22;39139;53.144;6.244;2022-12-29T04:33:11;9.70;99.90
51733;DHT22;39139;53.144;6.244;2022-12-29T04:35:36;9.60;99.90
51733;DHT22;39139;53.144;6.244;2022-12-29T04:38:02;9.60;99.90
51733;DHT22;39139;53.144;6.244;2022-12-29T04:40:28;9.60;99.90
51733;DHT22;39139;53.144;6.244;2022-12-29T04:42:54;9.50;99.90
51733;DHT22;39139;53.144;6.244;2022-12-29T04:45:20;9.50;99.90
51733;DHT22;39139;53.144;6.244;2022-12-29T04:47:46;9.50;99.90
51733;DHT22;39139;53.144;6.244;2022-12-29T04:50:11;9.80;99.90
51733;DHT22;39139;53.144;6.244;2022-12-29T04:52:37;9.40;99.90
51733;DHT22;39139;53.144;6.244;2022-12-29T04:55:04;9.70;99.90
51733;DHT22;39139;53.144;6.244;2022-12-29T04:57:30;9.30;99.90
51733;DHT22;39139;53.144;6.244;2022-12-29T04:59:55;9.40;99.90
51733;DHT22;39139;53.144;6.244;2022-12-29T05:02:21;10.10;99.90
51733;DHT22;39139;53.144;6.244;2022-12-29T05:04:47;9.40;99.90
51733;DHT22;39139;53.144;6.244;2022-12-29T05:07:13;9.30;99.90
51733;DHT22;39139;53.144;6.244;2022-12-29T05:09:39;9.20;99.90
51733;DHT22;39139;53.144;6.244;2022-12-29T05:12:05;9.30;99.90
51733;DHT22;39139;53.144;6.244;2022-12-29T05:14:30;9.20;99.90
51733;DHT22;39139;53.144;6.244;2022-12-29T05:16:56;9.50;99.90
51733;DHT22;39139;53.144;6.244;2022-12-29T05:19:21;9.20;99.90
51733;DHT22;39139;53.144;6.244;2022-12-29T05:21:47;10.40;99.90
51733;DHT22;39139;53.144;6.244;2022-12-29T05:24:13;9.20;99.90
51733;DHT22;39139;53.144;6.244;2022-12-29T05:26:38;9.10;99.90
51733;DHT22;39139;53.144;6.244;2022-12-29T05:29:04;9.10;99.90
51733;DHT22;39139;53.144;6.244;2022-12-29T05:31:29;9.00;99.90
51733;DHT22;39139;53.144;6.244;2022-12-29T05:33:55;9.30;99.90
51733;DHT22;39139;53.144;6.244;2022-12-29T05:36:21;9.00;99.90
51733;DHT22;39139;53.144;6.244;2022-12-29T05:38:46;9.20;99.90
51733;DHT22;39139;53.144;6.244;2022-12-29T05:41:12;8.90;99.90
51733;DHT22;39139;53.144;6.244;2022-12-29T05:43:37;9.10;99.90
51733;DHT22;39139;53.144;6.244;2022-12-29T05:46:03;9.10;99.90
51733;DHT22;39139;53.144;6.244;2022-12-29T05:48:29;9.20;99.90
51733;DHT22;39139;53.144;6.244;2022-12-29T05:50:55;9.40;99.90
51733;DHT22;39139;53.144;6.244;2022-12-29T05:53:21;10.20;99.90
51733;DHT22;39139;53.144;6.244;2022-12-29T05:55:47;9.20;99.90
51733;DHT22;39139;53.144;6.244;2022-12-29T05:58:13;9.30;99.90
51733;DHT22;39139;53.144;6.244;2022-12-29T06:00:39;9.20;99.90
51733;DHT22;39139;53.144;6.244;2022-12-29T06:03:05;9.50;99.90
51733;DHT22;39139;53.144;6.244;2022-12-29T06:05:30;9.70;99.90
51733;DHT22;39139;53.144;6.244;2022-12-29T06:07:56;9.30;99.90
51733;DHT22;39139;53.144;6.244;2022-12-29T06:10:22;9.20;99.90
51733;DHT22;39139;53.144;6.244;2022-12-29T06:12:47;10.00;99.90
51733;DHT22;39139;53.144;6.244;2022-12-29T06:15:14;9.50;99.90
51733;DHT22;39139;53.144;6.244;2022-12-29T06:17:39;9.30;99.90
51733;DHT22;39139;53.144;6.244;2022-12-29T06:20:07;9.30;99.90
51733;DHT22;39139;53.144;6.244;2022-12-29T06:22:32;9.20;99.90
51733;DHT22;39139;53.144;6.244;2022-12-29T06:24:58;9.20;99.90
51733;DHT22;39139;53.144;6.244;2022-12-29T06:27:24;9.20;99.90
51733;DHT22;39139;53.144;6.244;2022-12-29T06:29:49;10.10;99.90
51733;DHT22;39139;53.144;6.244;2022-12-29T06:32:15;9.10;99.90
51733;DHT22;39139;53.144;6.244;2022-12-29T06:34:41;9.20;99.90
51733;DHT22;39139;53.144;6.244;2022-12-29T06:37:06;9.20;99.90
51733;DHT22;39139;53.144;6.244;2022-12-29T06:39:32;9.10;99.90
51733;DHT22;39139;53.144;6.244;2022-12-29T06:41:58;9.00;99.90
51733;DHT22;39139;53.144;6.244;2022-12-29T06:44:23;9.00;99.90
51733;DHT22;39139;53.144;6.244;2022-12-29T06:46:50;9.00;99.90
51733;DHT22;39139;53.144;6.244;2022-12-29T06:49:16;9.00;99.90
51733;DHT22;39139;53.144;6.244;2022-12-29T06:51:41;9.00;99.90
51733;DHT22;39139;53.144;6.244;2022-12-29T06:54:08;9.10;99.90
51733;DHT22;39139;53.144;6.244;2022-12-29T06:56:34;9.20;99.90
51733;DHT22;39139;53.144;6.244;2022-12-29T06:58:59;9.00;99.90
51733;DHT22;39139;53.144;6.244;2022-12-29T07:01:28;9.00;99.90
51733;DHT22;39139;53.144;6.244;2022-12-29T07:03:54;9.10;99.90
51733;DHT22;39139;53.144;6.244;2022-12-29T07:06:20;8.90;99.90
51733;DHT22;39139;53.144;6.244;2022-12-29T07:08:46;9.00;99.90
51733;DHT22;39139;53.144;6.244;2022-12-29T07:11:11;9.10;99.90
51733;DHT22;39139;53.144;6.244;2022-12-29T07:13:37;9.10;99.90
51733;DHT22;39139;53.144;6.244;2022-12-29T07:16:07;9.00;99.90
51733;DHT22;39139;53.144;6.244;2022-12-29T07:18:34;9.00;99.90
51733;DHT22;39139;53.144;6.244;2022-12-29T07:20:59;9.00;99.90
51733;DHT22;39139;53.144;6.244;2022-12-29T07:23:25;9.00;99.90
51733;DHT22;39139;53.144;6.244;2022-12-29T07:25:59;10.10;99.90
51733;DHT22;39139;53.144;6.244;2022-12-29T07:28:25;9.10;99.90
51733;DHT22;39139;53.144;6.244;2022-12-29T07:30:50;9.10;99.90
51733;DHT22;39139;53.144;6.244;2022-12-29T07:33:16;9.10;99.90
51733;DHT22;39139;53.144;6.244;2022-12-29T07:35:42;9.10;99.90
51733;DHT22;39139;53.144;6.244;2022-12-29T07:38:07;9.10;99.90
51733;DHT22;39139;53.144;6.244;2022-12-29T07:40:33;9.20;99.90
51733;DHT22;39139;53.144;6.244;2022-12-29T07:42:58;9.20;99.90
51733;DHT22;39139;53.144;6.244;2022-12-29T07:45:24;9.20;99.90
51733;DHT22;39139;53.144;6.244;2022-12-29T07:47:50;9.20;99.90
51733;DHT22;39139;53.144;6.244;2022-12-29T07:50:15;9.20;99.90
51733;DHT22;39139;53.144;6.244;2022-12-29T07:52:41;9.30;99.90
51733;DHT22;39139;53.144;6.244;2022-12-29T07:55:07;9.30;99.90
51733;DHT22;39139;53.144;6.244;2022-12-29T07:57:33;9.30;99.90
51733;DHT22;39139;53.144;6.244;2022-12-29T07:59:59;10.10;99.90
51733;DHT22;39139;53.144;6.244;2022-12-29T08:02:24;9.30;99.90
51733;DHT22;39139;53.144;6.244;2022-12-29T08:04:51;10.10;99.90
51733;DHT22;39139;53.144;6.244;2022-12-29T08:07:17;9.30;99.90
51733;DHT22;39139;53.144;6.244;2022-12-29T08:09:42;9.20;99.90
51733;DHT22;39139;53.144;6.244;2022-12-29T08:12:10;9.30;99.90
51733;DHT22;39139;53.144;6.244;2022-12-29T08:14:36;9.40;99.90
51733;DHT22;39139;53.144;6.244;2022-12-29T08:17:01;9.30;99.90
51733;DHT22;39139;53.144;6.244;2022-12-29T08:19:27;9.30;99.90
51733;DHT22;39139;53.144;6.244;2022-12-29T08:21:53;9.30;99.90
51733;DHT22;39139;53.144;6.244;2022-12-29T08:24:18;9.40;99.90
51733;DHT22;39139;53.144;6.244;2022-12-29T08:26:44;9.30;99.90
51733;DHT22;39139;53.144;6.244;2022-12-29T08:29:10;9.30;99.90
51733;DHT22;39139;53.144;6.244;2022-12-29T08:31:35;9.60;99.90
51733;DHT22;39139;53.144;6.244;2022-12-29T08:34:01;9.90;99.90
51733;DHT22;39139;53.144;6.244;2022-12-29T08:36:28;9.30;99.90
51733;DHT22;39139;53.144;6.244;2022-12-29T08:38:55;9.30;99.90
51733;DHT22;39139;53.144;6.244;2022-12-29T08:41:20;9.30;99.90
51733;DHT22;39139;53.144;6.244;2022-12-29T08:43:47;9.20;99.90
51733;DHT22;39139;53.144;6.244;2022-12-29T08:46:13;9.20;99.90
51733;DHT22;39139;53.144;6.244;2022-12-29T08:48:39;9.20;99.90
51733;DHT22;39139;53.144;6.244;2022-12-29T08:51:04;9.20;99.90
51733;DHT22;39139;53.144;6.244;2022-12-29T08:53:30;9.20;99.90
51733;DHT22;39139;53.144;6.244;2022-12-29T08:55:58;10.30;99.90
51733;DHT22;39139;53.144;6.244;2022-12-29T08:58:25;9.30;99.90
51733;DHT22;39139;53.144;6.244;2022-12-29T09:00:53;9.30;99.90
51733;DHT22;39139;53.144;6.244;2022-12-29T09:03:19;9.30;99.90
51733;DHT22;39139;53.144;6.244;2022-12-29T09:05:51;9.30;99.90
51733;DHT22;39139;53.144;6.244;2022-12-29T09:08:17;9.20;99.90
51733;DHT22;39139;53.144;6.244;2022-12-29T09:10:44;9.10;99.90
51733;DHT22;39139;53.144;6.244;2022-12-29T09:13:11;9.20;99.90
51733;DHT22;39139;53.144;6.244;2022-12-29T09:15:37;9.20;99.90
51733;DHT22;39139;53.144;6.244;2022-12-29T09:18:03;9.20;99.90
51733;DHT22;39139;53.144;6.244;2022-12-29T09:20:29;9.30;99.90
51733;DHT22;39139;53.144;6.244;2022-12-29T09:22:54;9.20;99.90
51733;DHT22;39139;53.144;6.244;2022-12-29T09:25:20;9.20;99.90
51733;DHT22;39139;53.144;6.244;2022-12-29T09:27:48;9.20;99.90
51733;DHT22;39139;53.144;6.244;2022-12-29T09:30:13;9.20;99.90
51733;DHT22;39139;53.144;6.244;2022-12-29T09:32:40;9.20;99.90
51733;DHT22;39139;53.144;6.244;2022-12-29T09:35:06;9.30;99.90
51733;DHT22;39139;53.144;6.244;2022-12-29T09:37:32;9.20;99.90
51733;DHT22;39139;53.144;6.244;2022-12-29T09:39:57;9.20;99.90
51733;DHT22;39139;53.144;6.244;2022-12-29T09:45:44;9.20;99.90
51733;DHT22;39139;53.144;6.244;2022-12-29T09:48:22;9.30;99.90
51733;DHT22;39139;53.144;6.244;2022-12-29T09:50:55;9.30;99.90
51733;DHT22;39139;53.144;6.244;2022-12-29T09:53:30;9.20;99.90
51733;DHT22;39139;53.144;6.244;2022-12-29T09:56:00;9.10;99.90
51733;DHT22;39139;53.144;6.244;2022-12-29T09:58:47;9.10;99.90
51733;DHT22;39139;53.144;6.244;2022-12-29T10:01:30;9.10;99.90
51733;DHT22;39139;53.144;6.244;2022-12-29T10:03:58;9.10;99.90
51733;DHT22;39139;53.144;6.244;2022-12-29T10:06:42;9.70;99.90
51733;DHT22;39139;53.144;6.244;2022-12-29T10:09:20;9.00;99.90
51733;DHT22;39139;53.144;6.244;2022-12-29T10:18:00;8.90;99.90
51733;DHT22;39139;53.144;6.244;2022-12-29T10:20:58;8.70;99.90
51733;DHT22;39139;53.144;6.244;2022-12-29T10:23:39;8.90;99.90
51733;DHT22;39139;53.144;6.244;2022-12-29T10:26:10;8.70;99.90
51733;DHT22;39139;53.144;6.244;2022-12-29T10:31:23;8.70;99.90
51733;DHT22;39139;53.144;6.244;2022-12-29T10:33:58;8.70;99.90
51733;DHT22;39139;53.144;6.244;2022-12-29T10:36:35;8.70;99.90
51733;DHT22;39139;53.144;6.244;2022-12-29T10:39:26;8.90;99.90
51733;DHT22;39139;53.144;6.244;2022-12-29T10:44:54;8.70;99.90
51733;DHT22;39139;53.144;6.244;2022-12-29T10:47:24;8.80;99.90
51733;DHT22;39139;53.144;6.244;2022-12-29T10:49:51;9.50;99.90
51733;DHT22;39139;53.144;6.244;2022-12-29T10:52:19;8.80;99.90
51733;DHT22;39139;53.144;6.244;2022-12-29T10:57:38;8.90;99.90
51733;DHT22;39139;53.144;6.244;2022-12-29T11:03:00;9.20;99.90
51733;DHT22;39139;53.144;6.244;2022-12-29T11:08:24;9.20;99.90
51733;DHT22;39139;53.144;6.244;2022-12-29T11:11:08;9.20;99.90
51733;DHT22;39139;53.144;6.244;2022-12-29T11:13:46;9.30;99.90
51733;DHT22;39139;53.144;6.244;2022-12-29T11:16:12;9.10;99.90
51733;DHT22;39139;53.144;6.244;2022-12-29T11:18:40;9.20;99.90
51733;DHT22;39139;53.144;6.244;2022-12-29T11:21:37;9.40;99.90
51733;DHT22;39139;53.144;6.244;2022-12-29T11:26:44;9.20;99.90
51733;DHT22;39139;53.144;6.244;2022-12-29T11:31:46;9.30;99.90
51733;DHT22;39139;53.144;6.244;2022-12-29T11:34:38;9.20;99.90
51733;DHT22;39139;53.144;6.244;2022-12-29T11:42:06;9.30;99.90
51733;DHT22;39139;53.144;6.244;2022-12-29T11:44:41;9.40;99.90
51733;DHT22;39139;53.144;6.244;2022-12-29T11:47:19;9.30;99.90
51733;DHT22;39139;53.144;6.244;2022-12-29T11:49:50;9.40;99.90
51733;DHT22;39139;53.144;6.244;2022-12-29T11:52:24;9.40;99.90
51733;DHT22;39139;53.144;6.244;2022-12-29T11:54:52;9.50;99.90
51733;DHT22;39139;53.144;6.244;2022-12-29T11:57:19;9.50;99.90
51733;DHT22;39139;53.144;6.244;2022-12-29T11:59:54;9.50;99.90
51733;DHT22;39139;53.144;6.244;2022-12-29T12:05:30;9.70;99.90
51733;DHT22;39139;53.144;6.244;2022-12-29T12:10:40;9.70;99.90
51733;DHT22;39139;53.144;6.244;2022-12-29T12:13:45;9.90;99.90
51733;DHT22;39139;53.144;6.244;2022-12-29T12:16:17;9.70;99.90
51733;DHT22;39139;53.144;6.244;2022-12-29T12:18:52;9.70;99.90
51733;DHT22;39139;53.144;6.244;2022-12-29T12:21:25;9.60;99.90
51733;DHT22;39139;53.144;6.244;2022-12-29T12:30:21;9.70;99.90
51733;DHT22;39139;53.144;6.244;2022-12-29T12:33:06;9.40;99.90
51733;DHT22;39139;53.144;6.244;2022-12-29T12:41:17;9.40;99.90
51733;DHT22;39139;53.144;6.244;2022-12-29T12:58:17;9.50;99.90
51733;DHT22;39139;53.144;6.244;2022-12-29T13:00:22;9.50;99.90
51733;DHT22;39139;53.144;6.244;2022-12-29T13:03:13;9.50;99.90
51733;DHT22;39139;53.144;6.244;2022-12-29T13:06:09;9.40;99.90
51733;DHT22;39139;53.144;6.244;2022-12-29T13:09:02;9.40;99.90
51733;DHT22;39139;53.144;6.244;2022-12-29T13:12:29;9.40;99.90
51733;DHT22;39139;53.144;6.244;2022-12-29T13:17:15;9.40;99.90
51733;DHT22;39139;53.144;6.244;2022-12-29T13:19:48;9.40;99.90
51733;DHT22;39139;53.144;6.244;2022-12-29T13:25:05;9.40;99.90
51733;DHT22;39139;53.144;6.244;2022-12-29T13:27:37;9.30;99.90
51733;DHT22;39139;53.144;6.244;2022-12-29T13:30:17;9.80;99.90
51733;DHT22;39139;53.144;6.244;2022-12-29T13:32:57;9.40;99.90
51733;DHT22;39139;53.144;6.244;2022-12-29T13:38:29;9.40;99.90
51733;DHT22;39139;53.144;6.244;2022-12-29T13:41:04;9.40;99.90
51733;DHT22;39139;53.144;6.244;2022-12-29T13:43:32;9.40;99.90
51733;DHT22;39139;53.144;6.244;2022-12-29T13:46:06;9.40;99.90
51733;DHT22;39139;53.144;6.244;2022-12-29T13:48:56;9.40;99.90
51733;DHT22;39139;53.144;6.244;2022-12-29T13:51:24;9.50;99.90
51733;DHT22;39139;53.144;6.244;2022-12-29T13:59:59;9.50;99.90
51733;DHT22;39139;53.144;6.244;2022-12-29T14:07:46;9.30;99.90
51733;DHT22;39139;53.144;6.244;2022-12-29T14:10:48;9.30;99.90
51733;DHT22;39139;53.144;6.244;2022-12-29T14:13:20;9.20;99.90
51733;DHT22;39139;53.144;6.244;2022-12-29T14:15:55;9.20;99.90
51733;DHT22;39139;53.144;6.244;2022-12-29T14:18:25;9.10;99.90
51733;DHT22;39139;53.144;6.244;2022-12-29T14:20:58;8.90;99.90
51733;DHT22;39139;53.144;6.244;2022-12-29T14:23:42;8.90;99.90
51733;DHT22;39139;53.144;6.244;2022-12-29T14:28:55;8.80;99.90
51733;DHT22;39139;53.144;6.244;2022-12-29T14:36:41;8.70;99.90
51733;DHT22;39139;53.144;6.244;2022-12-29T14:44:30;8.60;99.90
51733;DHT22;39139;53.144;6.244;2022-12-29T14:47:04;8.60;99.90
51733;DHT22;39139;53.144;6.244;2022-12-29T14:49:39;8.50;99.90
51733;DHT22;39139;53.144;6.244;2022-12-29T14:52:17;8.50;99.90
51733;DHT22;39139;53.144;6.244;2022-12-29T14:54:48;9.30;99.90
51733;DHT22;39139;53.144;6.244;2022-12-29T14:57:57;8.40;99.90
51733;DHT22;39139;53.144;6.244;2022-12-29T15:00:35;8.50;99.90
51733;DHT22;39139;53.144;6.244;2022-12-29T15:03:06;8.40;99.90
51733;DHT22;39139;53.144;6.244;2022-12-29T15:08:06;8.30;99.90
51733;DHT22;39139;53.144;6.244;2022-12-29T15:10:37;8.30;99.90
51733;DHT22;39139;53.144;6.244;2022-12-29T15:13:18;8.30;99.90
51733;DHT22;39139;53.144;6.244;2022-12-29T15:15:46;8.20;99.90
51733;DHT22;39139;53.144;6.244;2022-12-29T15:18:26;8.20;99.90
51733;DHT22;39139;53.144;6.244;2022-12-29T15:20:58;8.10;99.90
51733;DHT22;39139;53.144;6.244;2022-12-29T15:23:25;8.10;99.90
51733;DHT22;39139;53.144;6.244;2022-12-29T15:26:03;8.10;99.90
51733;DHT22;39139;53.144;6.244;2022-12-29T15:28:41;8.00;99.90
51733;DHT22;39139;53.144;6.244;2022-12-29T15:33:40;8.00;99.90
51733;DHT22;39139;53.144;6.244;2022-12-29T15:36:11;8.00;99.90
51733;DHT22;39139;53.144;6.244;2022-12-29T15:38:38;8.00;99.90
51733;DHT22;39139;53.144;6.244;2022-12-29T15:46:27;8.00;99.90
51733;DHT22;39139;53.144;6.244;2022-12-29T15:48:55;8.00;99.90
51733;DHT22;39139;53.144;6.244;2022-12-29T15:51:28;7.90;99.90
51733;DHT22;39139;53.144;6.244;2022-12-29T15:53:55;8.00;99.90
51733;DHT22;39139;53.144;6.244;2022-12-29T15:56:21;8.00;99.90
51733;DHT22;39139;53.144;6.244;2022-12-29T15:58:51;8.10;99.90
51733;DHT22;39139;53.144;6.244;2022-12-29T16:01:37;8.10;99.90
51733;DHT22;39139;53.144;6.244;2022-12-29T16:04:09;8.10;99.90
51733;DHT22;39139;53.144;6.244;2022-12-29T16:06:39;8.10;99.90
51733;DHT22;39139;53.144;6.244;2022-12-29T16:09:15;8.10;99.90
51733;DHT22;39139;53.144;6.244;2022-12-29T16:11:44;8.00;99.90
51733;DHT22;39139;53.144;6.244;2022-12-29T16:14:17;8.00;99.90
51733;DHT22;39139;53.144;6.244;2022-12-29T16:16:45;8.00;99.90
51733;DHT22;39139;53.144;6.244;2022-12-29T16:19:21;7.90;99.90
51733;DHT22;39139;53.144;6.244;2022-12-29T16:21:47;7.90;99.90
51733;DHT22;39139;53.144;6.244;2022-12-29T16:24:19;8.80;99.90
51733;DHT22;39139;53.144;6.244;2022-12-29T16:26:51;7.70;99.90
51733;DHT22;39139;53.144;6.244;2022-12-29T16:29:20;8.30;99.90
51733;DHT22;39139;53.144;6.244;2022-12-29T16:31:56;7.60;99.90
51733;DHT22;39139;53.144;6.244;2022-12-29T16:39:46;7.50;99.90
51733;DHT22;39139;53.144;6.244;2022-12-29T16:42:34;7.40;99.90
51733;DHT22;39139;53.144;6.244;2022-12-29T16:47:46;7.30;99.90
51733;DHT22;39139;53.144;6.244;2022-12-29T16:50:16;7.30;99.90
51733;DHT22;39139;53.144;6.244;2022-12-29T16:52:48;7.30;99.90
51733;DHT22;39139;53.144;6.244;2022-12-29T16:55:17;7.10;99.90
51733;DHT22;39139;53.144;6.244;2022-12-29T16:57:44;7.10;99.90
51733;DHT22;39139;53.144;6.244;2022-12-29T17:00:24;7.10;99.90
51733;DHT22;39139;53.144;6.244;2022-12-29T17:02:53;7.20;99.90
51733;DHT22;39139;53.144;6.244;2022-12-29T17:05:19;7.10;99.90
51733;DHT22;39139;53.144;6.244;2022-12-29T17:07:46;7.20;99.90
51733;DHT22;39139;53.144;6.244;2022-12-29T17:10:12;7.20;99.90
51733;DHT22;39139;53.144;6.244;2022-12-29T17:12:43;7.20;99.90
51733;DHT22;39139;53.144;6.244;2022-12-29T17:15:24;7.20;99.90
51733;DHT22;39139;53.144;6.244;2022-12-29T17:17:51;7.30;99.90
51733;DHT22;39139;53.144;6.244;2022-12-29T17:20:26;7.40;99.90
51733;DHT22;39139;53.144;6.244;2022-12-29T17:22:52;7.40;99.90
51733;DHT22;39139;53.144;6.244;2022-12-29T17:25:31;8.10;99.90
51733;DHT22;39139;53.144;6.244;2022-12-29T17:28:04;7.30;99.90
51733;DHT22;39139;53.144;6.244;2022-12-29T17:30:32;7.40;99.90
51733;DHT22;39139;53.144;6.244;2022-12-29T17:33:08;7.40;99.90
51733;DHT22;39139;53.144;6.244;2022-12-29T17:35:34;7.40;99.90
51733;DHT22;39139;53.144;6.244;2022-12-29T17:38:00;8.00;99.90
51733;DHT22;39139;53.144;6.244;2022-12-29T17:40:32;7.50;99.90
51733;DHT22;39139;53.144;6.244;2022-12-29T17:42:58;7.40;99.90
51733;DHT22;39139;53.144;6.244;2022-12-29T17:45:29;7.40;99.90
51733;DHT22;39139;53.144;6.244;2022-12-29T17:47:58;7.50;99.90
51733;DHT22;39139;53.144;6.244;2022-12-29T17:50:27;7.50;99.90
51733;DHT22;39139;53.144;6.244;2022-12-29T17:53:01;7.50;99.90
51733;DHT22;39139;53.144;6.244;2022-12-29T17:55:28;7.50;99.90
51733;DHT22;39139;53.144;6.244;2022-12-29T17:57:54;7.50;99.90
51733;DHT22;39139;53.144;6.244;2022-12-29T18:00:25;7.40;99.90
51733;DHT22;39139;53.144;6.244;2022-12-29T18:02:55;7.40;99.90
51733;DHT22;39139;53.144;6.244;2022-12-29T18:05:28;7.40;99.90
51733;DHT22;39139;53.144;6.244;2022-12-29T18:07:58;7.40;99.90
51733;DHT22;39139;53.144;6.244;2022-12-29T18:10:25;7.40;99.90
51733;DHT22;39139;53.144;6.244;2022-12-29T18:12:53;7.40;99.90
51733;DHT22;39139;53.144;6.244;2022-12-29T18:15:25;7.40;99.90
51733;DHT22;39139;53.144;6.244;2022-12-29T18:17:59;7.40;99.90
51733;DHT22;39139;53.144;6.244;2022-12-29T18:20:29;7.40;99.90
51733;DHT22;39139;53.144;6.244;2022-12-29T18:22:55;7.40;99.90
51733;DHT22;39139;53.144;6.244;2022-12-29T18:27:51;7.30;99.90